»·PEaware :: ASA1201 KPDX-KSEA

ASA1201 :: KPDX-KSEA

FLIGHT INFORMATION

Flight Status: Arrived
Operator:
Alaska Airlines
More flights by this operator :: More flights under this callsign
Pilot: Andrew C. (28419)
Aircraft: BOEING 737-800
(B738)
More flights by this aircraft type
Origin: KPDX Portland Intl
United States
Destination: KSEA Seattle-Tacoma Intl
United States
More flights between these airports :: More routes between these airports
Route: +LAVAA6 LAVAA COUGA KRIEG HAWKZ7
File this flight plan on PilotEdge
Remarks: RMK / SIMBRIEF
Altitude:
(Current/Filed)
16,000ft
Speed:
(Current/Filed)
357kts
Departed: 17-Sep-20 04:53 PM
Arrived: 17-Sep-20 05:22 PM
Distance/Time
Traveled:
112nm/0:28
Distance/Time
To Go:
Arrived

Flight Plot

Page will automatically refresh every two minutes.

Flight plan parsing failed; only flown route is shown


Map Options




Map Legend


Flown Route
Filed Route
Departure Airport
Arrival Airport
Navaid (VOR, NDB)
Fix

Horizontal Profiles

Position Reports

Time Latitude Longitude Heading Altitude Ground
Speed
17-Sep-20 16:24 45.589857 -122.597330 208 39ft 0kts
17-Sep-20 16:25 45.589857 -122.597330 208 39ft 0kts
17-Sep-20 16:26 45.589857 -122.597330 208 39ft 0kts
17-Sep-20 16:27 45.589857 -122.597330 208 39ft 0kts
17-Sep-20 16:28 45.589857 -122.597330 208 39ft 0kts
17-Sep-20 16:29 45.589857 -122.597330 208 39ft 0kts
17-Sep-20 16:30 45.589857 -122.597330 208 39ft 0kts
17-Sep-20 16:31 45.589857 -122.597330 208 39ft 0kts
17-Sep-20 16:32 45.589857 -122.597330 208 39ft 0kts
17-Sep-20 16:33 45.589857 -122.597330 208 39ft 0kts
17-Sep-20 16:34 45.589857 -122.597330 208 39ft 0kts
17-Sep-20 16:35 45.589857 -122.597330 208 39ft 0kts
17-Sep-20 16:36 45.589857 -122.597330 208 39ft 0kts
17-Sep-20 16:37 45.589857 -122.597330 208 39ft 0kts
17-Sep-20 16:38 45.589857 -122.597330 208 39ft 0kts
17-Sep-20 16:39 45.589857 -122.597330 208 39ft 0kts
17-Sep-20 16:40 45.589857 -122.597330 208 39ft 0kts
17-Sep-20 16:42 45.589857 -122.597330 208 39ft 0kts
17-Sep-20 16:43 45.589857 -122.597330 208 39ft 0kts
17-Sep-20 16:44 45.589857 -122.597330 208 39ft 0kts
17-Sep-20 16:45 45.590106 -122.597131 208 39ft 2kts
17-Sep-20 16:46 45.590319 -122.596573 303 39ft 1kts
17-Sep-20 16:47 45.590302 -122.596532 299 39ft 0kts
17-Sep-20 16:48 45.590302 -122.596532 299 39ft 0kts
17-Sep-20 16:49 45.590314 -122.596562 299 39ft 0kts
17-Sep-20 16:50 45.590842 -122.597983 300 39ft 7kts
17-Sep-20 16:51 45.592872 -122.599798 45 39ft 8kts
17-Sep-20 16:52 45.594413 -122.597552 44 39ft 0kts
17-Sep-20 16:53 45.593548 -122.592396 119 39ft 77kts
17-Sep-20 16:54 45.572681 -122.535091 107 1507ft 208kts
17-Sep-20 16:55 45.561366 -122.436592 103 3840ft 273kts
17-Sep-20 16:55 45.550842 -122.346431 83 6581ft 284kts
17-Sep-20 16:57 45.599558 -122.237716 29 7014ft 290kts
17-Sep-20 16:58 45.672541 -122.270816 324 10083ft 300kts
17-Sep-20 16:59 45.750192 -122.347466 324 11839ft 361kts
17-Sep-20 16:59 45.822991 -122.414329 326 14134ft 380kts
17-Sep-20 17:00 45.918357 -122.492195 328 15987ft 406kts
17-Sep-20 17:01 46.014418 -122.576710 322 15999ft 399kts
17-Sep-20 17:02 46.107656 -122.663801 338 15999ft 403kts
17-Sep-20 17:03 46.215453 -122.699300 349 15999ft 404kts
17-Sep-20 17:05 46.346423 -122.723144 358 16000ft 405kts
17-Sep-20 17:05 46.438001 -122.726476 358 15999ft 380kts
17-Sep-20 17:06 46.545438 -122.730320 358 16000ft 384kts
17-Sep-20 17:07 46.650830 -122.734137 358 14942ft 371kts
17-Sep-20 17:08 46.752402 -122.733730 10 13099ft 361kts
17-Sep-20 17:09 46.839522 -122.673174 40 11425ft 342kts
17-Sep-20 17:10 46.907417 -122.581660 44 10192ft 313kts
17-Sep-20 17:11 46.966081 -122.493434 46 8981ft 298kts
17-Sep-20 17:12 47.031048 -122.427417 29 7598ft 275kts
17-Sep-20 17:13 47.097379 -122.370811 29 6265ft 273kts
17-Sep-20 17:14 47.158566 -122.319364 23 5249ft 255kts
17-Sep-20 17:15 47.221402 -122.308616 357 4082ft 212kts
17-Sep-20 17:16 47.277742 -122.309841 358 3242ft 199kts
17-Sep-20 17:17 47.325851 -122.309474 359 2373ft 149kts
17-Sep-20 17:18 47.366931 -122.308970 359 1620ft 146kts
17-Sep-20 17:19 47.407199 -122.308395 359 967ft 142kts
17-Sep-20 17:20 47.444826 -122.307996 359 437ft 73kts
17-Sep-20 17:21 47.450070 -122.306759 84 437ft 8kts

Navigation Log

Ident Type
Flight plan parsing failed, navigation log unavailable